createdAt,value
2022-10-19T00:08:41.886Z,15.56
2022-10-19T00:28:41.847Z,15.56
2022-10-19T00:48:41.829Z,15.43
2022-10-19T01:08:41.844Z,15.43
2022-10-19T01:28:41.788Z,15.56
2022-10-19T01:48:41.754Z,15.50
2022-10-19T02:08:41.719Z,15.50
2022-10-19T02:28:41.706Z,15.50
2022-10-19T02:48:41.700Z,15.37
2022-10-19T03:08:41.683Z,15.50
2022-10-19T03:28:41.623Z,15.31
2022-10-19T03:48:41.645Z,15.50
2022-10-19T04:08:41.580Z,15.43
2022-10-19T04:28:41.538Z,15.43
2022-10-19T04:48:41.535Z,15.56
2022-10-19T05:08:41.535Z,15.50
2022-10-19T05:28:41.483Z,15.43
2022-10-19T05:48:41.458Z,15.37
2022-10-19T06:08:41.441Z,15.37
2022-10-19T06:28:41.413Z,15.25
2022-10-19T06:48:41.415Z,15.56
2022-10-19T07:08:41.361Z,15.37
2022-10-19T07:28:41.325Z,15.37
2022-10-19T07:48:41.346Z,15.43
2022-10-19T08:08:41.280Z,15.56
2022-10-19T08:28:41.265Z,15.31
2022-10-19T08:48:41.274Z,15.31
2022-10-19T09:08:41.230Z,15.31
2022-10-19T09:28:41.178Z,15.50
2022-10-19T09:48:41.152Z,15.62
2022-10-19T10:08:41.138Z,15.50
2022-10-19T10:28:41.112Z,15.56
2022-10-19T10:48:41.078Z,15.56
2022-10-19T11:08:41.047Z,15.56
2022-10-19T11:28:41.072Z,15.62
2022-10-19T11:48:41.001Z,15.81
2022-10-19T12:08:40.989Z,15.62
2022-10-19T12:28:40.939Z,15.62
2022-10-19T12:48:40.918Z,15.68
2022-10-19T13:08:40.919Z,15.75
2022-10-19T13:28:40.894Z,15.68
2022-10-19T13:48:40.835Z,15.62
2022-10-19T14:08:40.805Z,15.87
2022-10-19T14:28:40.780Z,15.75
2022-10-19T14:48:40.756Z,15.93
2022-10-19T15:08:40.723Z,15.68
2022-10-19T15:28:40.707Z,15.68
2022-10-19T15:48:40.682Z,15.75
2022-10-19T16:08:40.643Z,15.68
2022-10-19T16:28:40.618Z,15.62
2022-10-19T16:48:40.596Z,15.62
2022-10-19T17:08:40.577Z,15.68
2022-10-19T17:28:40.548Z,15.81
2022-10-19T17:48:40.521Z,15.50
2022-10-19T18:08:40.486Z,15.50
2022-10-19T18:28:40.471Z,15.62
2022-10-19T18:48:40.441Z,15.50
2022-10-19T19:08:40.435Z,15.43
2022-10-19T19:28:40.407Z,15.50
2022-10-19T19:48:40.377Z,15.25
2022-10-19T20:08:40.347Z,15.25
2022-10-19T20:28:40.326Z,15.31
2022-10-19T20:48:40.290Z,15.31
2022-10-19T21:08:40.282Z,15.31
2022-10-19T21:28:40.249Z,15.18
2022-10-19T21:48:40.235Z,15.18
2022-10-19T22:08:40.221Z,15.43
2022-10-19T22:28:40.217Z,15.18
2022-10-19T22:48:40.176Z,15.25
2022-10-19T23:08:40.146Z,15.25
2022-10-19T23:28:40.163Z,15.00
2022-10-19T23:48:40.128Z,15.12
